createdAt,value
2018-08-16T00:00:03.467Z,70.26
2018-08-16T00:00:13.440Z,70.36
2018-08-16T00:00:23.478Z,70.26
2018-08-16T00:00:33.490Z,70.26
2018-08-16T00:00:43.529Z,70.26
2018-08-16T00:00:53.509Z,70.26
2018-08-16T00:01:03.551Z,70.17
2018-08-16T00:01:13.540Z,70.17
2018-08-16T00:01:23.566Z,70.23
2018-08-16T00:01:33.589Z,70.17
2018-08-16T00:01:43.588Z,70.26
2018-08-16T00:01:53.568Z,69.98
2018-08-16T00:02:03.598Z,69.98
2018-08-16T00:02:13.608Z,70.17
2018-08-16T00:02:23.664Z,69.94
2018-08-16T00:02:33.669Z,70.17
2018-08-16T00:02:43.659Z,70.07
2018-08-16T00:02:53.723Z,70.07
2018-08-16T00:03:03.732Z,69.98
2018-08-16T00:03:13.749Z,69.98
2018-08-16T00:03:23.687Z,69.98
2018-08-16T00:03:33.738Z,69.88
2018-08-16T00:03:43.770Z,69.98
2018-08-16T00:03:53.731Z,69.98
2018-08-16T00:04:03.781Z,69.88
2018-08-16T00:04:13.779Z,69.88
2018-08-16T00:04:23.798Z,69.98
2018-08-16T00:04:33.798Z,69.88
2018-08-16T00:04:43.839Z,70.04
2018-08-16T00:04:53.872Z,69.98
2018-08-16T00:05:03.888Z,69.84
2018-08-16T00:05:13.880Z,69.88
2018-08-16T00:05:23.912Z,69.88
2018-08-16T00:05:33.938Z,69.88
2018-08-16T00:05:44.009Z,69.88
2018-08-16T00:05:53.918Z,69.84
2018-08-16T00:06:03.968Z,69.88
2018-08-16T00:06:13.999Z,69.88
2018-08-16T00:06:23.980Z,69.78
2018-08-16T00:06:34.005Z,69.78
2018-08-16T00:06:44.048Z,69.88
2018-08-16T00:06:54.040Z,69.88
2018-08-16T00:07:04.069Z,69.78
2018-08-16T00:07:14.059Z,69.74
2018-08-16T00:07:23.779Z,69.88
2018-08-16T00:07:34.106Z,69.78
2018-08-16T00:07:44.129Z,69.88
2018-08-16T00:07:54.100Z,69.88
2018-08-16T00:08:04.139Z,69.74
2018-08-16T00:08:14.139Z,69.84
2018-08-16T00:08:24.139Z,69.88
2018-08-16T00:08:34.169Z,69.98
2018-08-16T00:08:44.149Z,70.07
2018-08-16T00:08:54.169Z,69.88
2018-08-16T00:09:04.220Z,69.88
2018-08-16T00:09:14.230Z,69.98
2018-08-16T00:09:23.930Z,69.74
2018-08-16T00:09:34.243Z,69.98
2018-08-16T00:09:44.270Z,69.98
2018-08-16T00:09:54.273Z,69.65
2018-08-16T00:10:04.300Z,69.78
2018-08-16T00:10:14.290Z,69.88
2018-08-16T00:10:24.340Z,69.88
2018-08-16T00:10:34.320Z,69.68
2018-08-16T00:10:44.351Z,69.74
2018-08-16T00:10:54.382Z,69.78
2018-08-16T00:11:04.353Z,69.78
2018-08-16T00:11:14.379Z,69.59
2018-08-16T00:11:24.390Z,69.68
2018-08-16T00:11:34.390Z,69.59
2018-08-16T00:11:44.420Z,69.78
2018-08-16T00:11:54.480Z,69.65
2018-08-16T00:12:04.440Z,69.78
2018-08-16T00:12:14.471Z,69.59
2018-08-16T00:12:24.470Z,69.68
2018-08-16T00:12:34.470Z,69.78
2018-08-16T00:12:44.514Z,69.68
2018-08-16T00:12:54.551Z,69.68
2018-08-16T00:13:04.541Z,69.68
2018-08-16T00:13:14.550Z,69.78
2018-08-16T00:13:24.570Z,69.68
2018-08-16T00:13:34.584Z,69.78
2018-08-16T00:13:44.591Z,69.68
2018-08-16T00:13:54.613Z,69.68
2018-08-16T00:14:04.650Z,69.68
2018-08-16T00:14:14.621Z,69.68
2018-08-16T00:14:24.645Z,69.78
2018-08-16T00:14:34.690Z,69.74
2018-08-16T00:14:44.650Z,69.78
2018-08-16T00:14:54.670Z,69.68
2018-08-16T00:15:04.720Z,69.88
2018-08-16T00:15:14.699Z,69.78
2018-08-16T00:15:24.734Z,69.78
2018-08-16T00:15:34.742Z,69.78
2018-08-16T00:15:44.759Z,69.56
2018-08-16T00:15:54.770Z,69.88
2018-08-16T00:16:04.780Z,69.74
2018-08-16T00:16:14.791Z,69.74
2018-08-16T00:16:24.800Z,69.74
2018-08-16T00:16:34.837Z,69.78
2018-08-16T00:16:44.849Z,69.74
2018-08-16T00:16:54.873Z,69.78
2018-08-16T00:17:04.861Z,69.78
2018-08-16T00:17:14.860Z,69.88
2018-08-16T00:17:24.641Z,69.88
2018-08-16T00:17:34.911Z,69.78
2018-08-16T00:17:44.901Z,69.78
2018-08-16T00:17:54.661Z,69.78
2018-08-16T00:18:04.940Z,69.78
2018-08-16T00:18:14.985Z,69.78
2018-08-16T00:18:24.981Z,69.78
2018-08-16T00:18:34.981Z,69.78
2018-08-16T00:18:45.041Z,69.78
2018-08-16T00:18:55.012Z,69.56
2018-08-16T00:19:05.041Z,69.88
2018-08-16T00:19:15.043Z,69.88
2018-08-16T00:19:25.021Z,69.78
2018-08-16T00:19:35.085Z,69.78
2018-08-16T00:19:45.091Z,69.78
2018-08-16T00:19:55.090Z,69.56
2018-08-16T00:20:05.111Z,69.88
2018-08-16T00:20:15.121Z,69.74
2018-08-16T00:20:25.129Z,69.88
2018-08-16T00:20:35.171Z,69.74
2018-08-16T00:20:45.173Z,69.59
2018-08-16T00:20:55.160Z,69.59
2018-08-16T00:21:05.145Z,69.59
2018-08-16T00:21:15.201Z,69.88
2018-08-16T00:21:25.171Z,69.56
2018-08-16T00:21:35.220Z,69.98
2018-08-16T00:21:45.201Z,69.59
2018-08-16T00:21:55.248Z,69.98
2018-08-16T00:22:05.251Z,69.88
2018-08-16T00:22:15.289Z,69.84
2018-08-16T00:22:25.312Z,69.98
2018-08-16T00:22:35.321Z,69.78
2018-08-16T00:22:45.321Z,69.78
2018-08-16T00:22:55.321Z,69.98
2018-08-16T00:23:05.332Z,69.78
2018-08-16T00:23:15.374Z,69.88
2018-08-16T00:23:25.423Z,69.78
2018-08-16T00:23:35.392Z,69.78
2018-08-16T00:23:45.391Z,69.78
2018-08-16T00:23:55.421Z,69.68
2018-08-16T00:24:05.391Z,69.59
2018-08-16T00:24:15.422Z,69.74
2018-08-16T00:24:25.461Z,70.07
2018-08-16T00:24:35.455Z,69.98
2018-08-16T00:24:45.473Z,69.68
2018-08-16T00:24:55.486Z,69.68
2018-08-16T00:25:05.532Z,69.68
2018-08-16T00:25:15.535Z,69.78
2018-08-16T00:25:25.575Z,69.68
2018-08-16T00:25:35.563Z,69.98
2018-08-16T00:25:45.562Z,69.59
2018-08-16T00:25:55.602Z,70.07
2018-08-16T00:26:05.602Z,69.59
2018-08-16T00:26:15.592Z,69.49
2018-08-16T00:26:25.352Z,69.59
2018-08-16T00:26:35.645Z,69.56
2018-08-16T00:26:45.694Z,69.56
2018-08-16T00:26:55.673Z,69.4
2018-08-16T00:27:05.671Z,69.49
2018-08-16T00:27:15.702Z,70.07
2018-08-16T00:27:25.738Z,69.59
2018-08-16T00:27:35.722Z,69.59
2018-08-16T00:27:45.726Z,69.49
2018-08-16T00:27:55.772Z,69.59
2018-08-16T00:28:05.752Z,69.49
2018-08-16T00:28:15.742Z,69.68
2018-08-16T00:28:25.777Z,69.49
2018-08-16T00:28:35.806Z,69.68
2018-08-16T00:28:45.802Z,69.68
2018-08-16T00:28:55.832Z,69.78
2018-08-16T00:29:05.841Z,69.56
2018-08-16T00:29:15.844Z,69.36
2018-08-16T00:29:25.894Z,69.49
2018-08-16T00:29:35.881Z,69.49
2018-08-16T00:29:45.901Z,69.3
2018-08-16T00:29:55.892Z,69.56
2018-08-16T00:30:05.690Z,69.49
2018-08-16T00:30:15.652Z,69.46
2018-08-16T00:30:25.951Z,69.36
2018-08-16T00:30:35.971Z,69.3
2018-08-16T00:30:45.992Z,69.3
2018-08-16T00:30:55.977Z,69.4
2018-08-16T00:31:05.992Z,69.2
2018-08-16T00:31:16.023Z,69.49
2018-08-16T00:31:26.012Z,69.3
2018-08-16T00:31:36.034Z,69.4
2018-08-16T00:31:46.052Z,69.49
2018-08-16T00:31:56.043Z,69.56
2018-08-16T00:32:06.072Z,69.26
2018-08-16T00:32:16.092Z,69.59
2018-08-16T00:32:26.087Z,69.49
2018-08-16T00:32:36.146Z,69.36
2018-08-16T00:32:46.133Z,69.3
2018-08-16T00:32:56.123Z,69.4
2018-08-16T00:33:06.172Z,69.4
2018-08-16T00:33:16.183Z,69.3
2018-08-16T00:33:26.182Z,69.49
2018-08-16T00:33:36.199Z,69.26
2018-08-16T00:33:45.933Z,69.17
2018-08-16T00:33:56.221Z,69.36
2018-08-16T00:34:06.233Z,69.36
2018-08-16T00:34:16.254Z,69.4
2018-08-16T00:34:26.279Z,69.36
2018-08-16T00:34:36.023Z,69.26
2018-08-16T00:34:46.296Z,69.3
2018-08-16T00:34:56.350Z,69.3
2018-08-16T00:35:06.313Z,69.3
2018-08-16T00:35:16.355Z,69.2
2018-08-16T00:35:26.354Z,69.2
2018-08-16T00:35:36.362Z,69.3
2018-08-16T00:35:46.353Z,69.2
2018-08-16T00:35:56.403Z,69.36
2018-08-16T00:36:06.403Z,69.17
2018-08-16T00:36:16.423Z,69.2
2018-08-16T00:36:26.444Z,69.3
2018-08-16T00:36:36.434Z,69.2
2018-08-16T00:36:46.453Z,69.3
2018-08-16T00:36:56.513Z,69.2
2018-08-16T00:37:06.452Z,69.2
2018-08-16T00:37:16.475Z,69.3
2018-08-16T00:37:26.514Z,69.4
2018-08-16T00:37:36.523Z,69.3
2018-08-16T00:37:46.523Z,69.3
2018-08-16T00:37:56.573Z,69.2
2018-08-16T00:38:06.573Z,69.2
2018-08-16T00:38:16.613Z,69.17
2018-08-16T00:38:26.624Z,69.3
2018-08-16T00:38:36.604Z,69.2
2018-08-16T00:38:46.602Z,69.3
2018-08-16T00:38:56.653Z,69.36
2018-08-16T00:39:06.663Z,69.2
2018-08-16T00:39:16.682Z,69.4
2018-08-16T00:39:26.683Z,69.1
2018-08-16T00:39:36.701Z,69.49
2018-08-16T00:39:46.693Z,69.59
2018-08-16T00:39:56.716Z,69.2
2018-08-16T00:40:06.744Z,69.2
2018-08-16T00:40:16.724Z,69.59
2018-08-16T00:40:26.744Z,69.4
2018-08-16T00:40:36.778Z,69.49
2018-08-16T00:40:46.780Z,69.2
2018-08-16T00:40:56.811Z,69.56
2018-08-16T00:41:06.836Z,69.3
2018-08-16T00:41:16.814Z,69.4
2018-08-16T00:41:26.834Z,69.56
2018-08-16T00:41:36.846Z,69.1
2018-08-16T00:41:46.874Z,69.2
2018-08-16T00:41:56.886Z,69.3
2018-08-16T00:42:06.920Z,69.17
2018-08-16T00:42:16.894Z,69.2
2018-08-16T00:42:26.925Z,69.4
2018-08-16T00:42:36.964Z,69.2
2018-08-16T00:42:46.953Z,69.07
2018-08-16T00:42:56.963Z,69.2
2018-08-16T00:43:06.966Z,69.2
2018-08-16T00:43:16.724Z,69.2
2018-08-16T00:43:27.004Z,69.2
2018-08-16T00:43:37.014Z,69.2
2018-08-16T00:43:47.034Z,69.3
2018-08-16T00:43:56.772Z,69.2
2018-08-16T00:44:07.044Z,69.2
2018-08-16T00:44:17.076Z,69.2
2018-08-16T00:44:27.110Z,69.17
2018-08-16T00:44:37.095Z,69.17
2018-08-16T00:44:47.127Z,69.17
2018-08-16T00:44:57.115Z,69.1
2018-08-16T00:45:07.134Z,69.2
2018-08-16T00:45:17.155Z,69.2
2018-08-16T00:45:27.177Z,69.2
2018-08-16T00:45:37.155Z,69.1
2018-08-16T00:45:47.202Z,69.2
2018-08-16T00:45:57.231Z,69.17
2018-08-16T00:46:07.214Z,69.01
2018-08-16T00:46:17.224Z,69.4
2018-08-16T00:46:27.256Z,69.1
2018-08-16T00:46:37.295Z,69.1
2018-08-16T00:46:47.273Z,69.2
2018-08-16T00:46:57.274Z,69.1
2018-08-16T00:47:07.294Z,69.3
2018-08-16T00:47:17.344Z,69.4
2018-08-16T00:47:27.335Z,68.68
2018-08-16T00:47:37.354Z,69.3
2018-08-16T00:47:47.381Z,68.98
2018-08-16T00:47:57.379Z,69.1
2018-08-16T00:48:07.385Z,68.88
2018-08-16T00:48:17.430Z,68.98
2018-08-16T00:48:27.445Z,69.2
2018-08-16T00:48:37.405Z,69.01
2018-08-16T00:48:47.445Z,69.1
2018-08-16T00:48:57.455Z,69.2
2018-08-16T00:49:07.458Z,69.1
2018-08-16T00:49:17.475Z,69.01
2018-08-16T00:49:27.505Z,69.01
2018-08-16T00:49:37.455Z,69.3
2018-08-16T00:49:47.525Z,69.01
2018-08-16T00:49:57.479Z,69.3
2018-08-16T00:50:07.556Z,69.01
2018-08-16T00:50:17.585Z,68.88
2018-08-16T00:50:27.575Z,68.78
2018-08-16T00:50:37.626Z,69.1
2018-08-16T00:50:47.611Z,69.1
2018-08-16T00:50:57.615Z,68.82
2018-08-16T00:51:07.646Z,68.82
2018-08-16T00:51:17.355Z,68.88
2018-08-16T00:51:27.643Z,69.2
2018-08-16T00:51:37.665Z,69.01
2018-08-16T00:51:47.667Z,69.01
2018-08-16T00:51:57.695Z,69.3
2018-08-16T00:52:07.718Z,68.82
2018-08-16T00:52:17.424Z,69.07
2018-08-16T00:52:27.464Z,68.91
2018-08-16T00:52:37.755Z,69.26
2018-08-16T00:52:47.743Z,69.3
2018-08-16T00:52:57.815Z,68.88
2018-08-16T00:53:07.805Z,69.01
2018-08-16T00:53:17.821Z,68.82
2018-08-16T00:53:27.825Z,69.01
2018-08-16T00:53:37.851Z,68.82
2018-08-16T00:53:47.893Z,69.1
2018-08-16T00:53:57.881Z,68.91
2018-08-16T00:54:07.878Z,69.01
2018-08-16T00:54:17.899Z,68.98
2018-08-16T00:54:27.913Z,69.1
2018-08-16T00:54:37.925Z,69.3
2018-08-16T00:54:47.955Z,68.98
2018-08-16T00:54:57.965Z,69.36
2018-08-16T00:55:07.955Z,68.91
2018-08-16T00:55:17.996Z,68.78
2018-08-16T00:55:27.940Z,68.98
2018-08-16T00:55:38.007Z,68.91
2018-08-16T00:55:48.026Z,69.17
2018-08-16T00:55:57.996Z,69.1
2018-08-16T00:56:07.766Z,69.01
2018-08-16T00:56:18.052Z,68.91
2018-08-16T00:56:28.047Z,69.2
2018-08-16T00:56:38.105Z,68.82
2018-08-16T00:56:48.156Z,68.91
2018-08-16T00:56:58.099Z,68.88
2018-08-16T00:57:08.116Z,68.91
2018-08-16T00:57:18.146Z,68.91
2018-08-16T00:57:28.426Z,69.1
2018-08-16T00:57:38.145Z,68.88
2018-08-16T00:57:48.175Z,68.82
2018-08-16T00:57:58.186Z,69.1
2018-08-16T00:58:08.197Z,68.91
2018-08-16T00:58:18.217Z,69.01
2018-08-16T00:58:28.268Z,68.88
2018-08-16T00:58:38.236Z,68.78
2018-08-16T00:58:48.273Z,68.91
2018-08-16T00:58:58.254Z,68.91
2018-08-16T00:59:08.286Z,68.88
2018-08-16T00:59:18.305Z,68.91
2018-08-16T00:59:28.329Z,68.91
2018-08-16T00:59:38.341Z,68.82
2018-08-16T00:59:48.337Z,68.91
2018-08-16T00:59:58.356Z,68.82
2018-08-16T01:00:08.376Z,68.91
2018-08-16T01:00:18.386Z,68.91
2018-08-16T01:00:28.418Z,68.91
2018-08-16T01:00:38.406Z,68.91
2018-08-16T01:00:48.425Z,69.01
2018-08-16T01:00:58.456Z,68.78
2018-08-16T01:01:08.446Z,68.82
2018-08-16T01:01:18.467Z,69.2
2018-08-16T01:01:28.476Z,69.2
2018-08-16T01:01:38.477Z,69.2
2018-08-16T01:01:48.506Z,68.82
2018-08-16T01:01:58.506Z,69.2
2018-08-16T01:02:08.541Z,68.91
2018-08-16T01:02:18.538Z,69.01
2018-08-16T01:02:28.596Z,68.91
2018-08-16T01:02:38.588Z,68.78
2018-08-16T01:02:48.577Z,68.82
2018-08-16T01:02:58.608Z,69.2
2018-08-16T01:03:08.627Z,68.91
2018-08-16T01:03:18.627Z,69.01
2018-08-16T01:03:28.651Z,68.91
2018-08-16T01:03:38.687Z,68.78
2018-08-16T01:03:48.638Z,68.88
2018-08-16T01:03:58.677Z,68.91
2018-08-16T01:04:08.676Z,68.91
2018-08-16T01:04:18.727Z,68.82
2018-08-16T01:04:28.772Z,68.88
2018-08-16T01:04:38.737Z,68.88
2018-08-16T01:04:48.447Z,68.91
2018-08-16T01:04:58.753Z,68.88
2018-08-16T01:05:08.767Z,68.91
2018-08-16T01:05:18.527Z,68.91
2018-08-16T01:05:28.798Z,68.82
2018-08-16T01:05:38.557Z,68.88
2018-08-16T01:05:48.807Z,69.01
2018-08-16T01:05:58.827Z,68.91
2018-08-16T01:06:08.857Z,68.78
2018-08-16T01:06:18.847Z,68.72
2018-08-16T01:06:28.875Z,69.17
2018-08-16T01:06:39.087Z,68.82
2018-08-16T01:06:48.887Z,68.91
2018-08-16T01:06:58.924Z,68.68
2018-08-16T01:07:08.937Z,68.91
2018-08-16T01:07:18.948Z,68.82
2018-08-16T01:07:28.947Z,69.3
2018-08-16T01:07:38.977Z,69.2
2018-08-16T01:07:48.968Z,69.07
2018-08-16T01:07:58.977Z,68.88
2018-08-16T01:08:09.008Z,68.82
2018-08-16T01:08:19.006Z,68.91
2018-08-16T01:08:29.026Z,69.01
2018-08-16T01:08:39.047Z,69.2
2018-08-16T01:08:49.067Z,69.1
2018-08-16T01:08:59.057Z,68.91
2018-08-16T01:09:09.055Z,68.91
2018-08-16T01:09:18.827Z,68.91
2018-08-16T01:09:29.097Z,68.88
2018-08-16T01:09:39.090Z,68.91
2018-08-16T01:09:49.153Z,69.07
2018-08-16T01:09:59.151Z,69.1
2018-08-16T01:10:09.166Z,69.01
2018-08-16T01:10:19.210Z,69.01
2018-08-16T01:10:29.161Z,68.91
2018-08-16T01:10:39.218Z,69.01
2018-08-16T01:10:49.218Z,69.2
2018-08-16T01:10:59.228Z,68.98
2018-08-16T01:11:09.227Z,69.01
2018-08-16T01:11:19.247Z,68.98
2018-08-16T01:11:29.278Z,68.88
2018-08-16T01:11:39.258Z,68.88
2018-08-16T01:11:49.285Z,68.91
2018-08-16T01:11:59.309Z,69.01
2018-08-16T01:12:09.328Z,69.2
2018-08-16T01:12:19.338Z,69.2
2018-08-16T01:12:29.327Z,68.82
2018-08-16T01:12:39.348Z,69.01
2018-08-16T01:12:49.390Z,68.98
2018-08-16T01:12:59.142Z,69.01
2018-08-16T01:13:09.390Z,69.2
2018-08-16T01:13:19.418Z,68.88
2018-08-16T01:13:29.427Z,69.1
2018-08-16T01:13:39.448Z,69.1
2018-08-16T01:13:49.483Z,69.2
2018-08-16T01:13:59.468Z,69.2
2018-08-16T01:14:09.458Z,69.07
2018-08-16T01:14:19.499Z,69.2
2018-08-16T01:14:29.528Z,69.1
2018-08-16T01:14:39.527Z,69.1
2018-08-16T01:14:49.527Z,68.91
2018-08-16T01:14:59.557Z,69.1
2018-08-16T01:15:09.578Z,69.2
2018-08-16T01:15:19.588Z,69.01
2018-08-16T01:15:29.588Z,69.07
2018-08-16T01:15:39.587Z,69.1
2018-08-16T01:15:49.615Z,69.07
2018-08-16T01:15:59.648Z,69.1
2018-08-16T01:16:09.382Z,69.1
2018-08-16T01:16:19.648Z,68.91
2018-08-16T01:16:29.667Z,69.1
2018-08-16T01:16:39.709Z,68.91
2018-08-16T01:16:49.699Z,69.1
2018-08-16T01:16:59.729Z,68.82
2018-08-16T01:17:09.765Z,69.07
2018-08-16T01:17:19.749Z,69.01
2018-08-16T01:17:29.778Z,68.91
2018-08-16T01:17:39.778Z,69.1
2018-08-16T01:17:49.778Z,68.88
2018-08-16T01:17:59.802Z,68.72
2018-08-16T01:18:09.809Z,68.72
2018-08-16T01:18:19.841Z,69.1
2018-08-16T01:18:29.853Z,69.1
2018-08-16T01:18:39.849Z,69.17
2018-08-16T01:18:49.858Z,69.1
2018-08-16T01:18:59.859Z,69.2
2018-08-16T01:19:09.902Z,68.88
2018-08-16T01:19:19.899Z,69.07
2018-08-16T01:19:29.919Z,68.88
2018-08-16T01:19:39.939Z,69.07
2018-08-16T01:19:49.939Z,69.17
2018-08-16T01:19:59.689Z,69.2
2018-08-16T01:20:10.048Z,69.2
2018-08-16T01:20:20.165Z,69.07
2018-08-16T01:20:29.979Z,69.1
2018-08-16T01:20:40.019Z,69.1
2018-08-16T01:20:50.041Z,69.17
2018-08-16T01:21:00.058Z,69.1
2018-08-16T01:21:10.050Z,68.91
2018-08-16T01:21:19.808Z,69.07
2018-08-16T01:21:30.119Z,68.82
2018-08-16T01:21:40.082Z,68.78
2018-08-16T01:21:50.108Z,68.68
2018-08-16T01:22:00.149Z,68.72
2018-08-16T01:22:09.869Z,68.68
2018-08-16T01:22:20.148Z,68.88
2018-08-16T01:22:30.168Z,68.78
2018-08-16T01:22:40.198Z,68.78
2018-08-16T01:22:50.199Z,68.72
2018-08-16T01:22:59.951Z,68.82
2018-08-16T01:23:10.228Z,68.78
2018-08-16T01:23:20.250Z,68.72
2018-08-16T01:23:30.291Z,68.82
2018-08-16T01:23:40.259Z,68.82
2018-08-16T01:23:50.306Z,68.72
2018-08-16T01:24:00.280Z,68.68
2018-08-16T01:24:10.308Z,68.72
2018-08-16T01:24:20.319Z,68.82
2018-08-16T01:24:30.345Z,68.68
2018-08-16T01:24:40.388Z,68.82
2018-08-16T01:24:50.329Z,68.68
2018-08-16T01:25:00.359Z,68.72
2018-08-16T01:25:10.399Z,68.72
2018-08-16T01:25:20.410Z,69.01
2018-08-16T01:25:30.431Z,68.62
2018-08-16T01:25:40.431Z,68.72
2018-08-16T01:25:50.431Z,68.91
2018-08-16T01:26:00.468Z,69.01
2018-08-16T01:26:10.490Z,68.59
2018-08-16T01:26:20.485Z,68.59
2018-08-16T01:26:30.530Z,68.59
2018-08-16T01:26:40.530Z,68.88
2018-08-16T01:26:50.610Z,68.59
2018-08-16T01:27:00.549Z,68.68
2018-08-16T01:27:10.559Z,68.72
2018-08-16T01:27:20.581Z,68.82
2018-08-16T01:27:30.565Z,68.82
2018-08-16T01:27:40.611Z,68.68
2018-08-16T01:27:50.630Z,68.78
2018-08-16T01:28:00.631Z,68.78
2018-08-16T01:28:10.649Z,68.82
2018-08-16T01:28:20.652Z,68.82
2018-08-16T01:28:30.660Z,68.68
2018-08-16T01:28:40.680Z,68.82
2018-08-16T01:28:50.679Z,68.62
2018-08-16T01:29:00.679Z,68.72
2018-08-16T01:29:10.789Z,68.62
2018-08-16T01:29:20.730Z,68.78
2018-08-16T01:29:30.750Z,68.82
2018-08-16T01:29:40.762Z,68.91
2018-08-16T01:29:50.772Z,69.01
2018-08-16T01:30:00.783Z,68.88
2018-08-16T01:30:10.820Z,68.78
2018-08-16T01:30:20.841Z,68.72
2018-08-16T01:30:30.849Z,68.62
2018-08-16T01:30:40.830Z,68.59
2018-08-16T01:30:50.891Z,68.72
2018-08-16T01:31:00.878Z,68.82
2018-08-16T01:31:10.879Z,68.72
2018-08-16T01:31:20.910Z,68.72
2018-08-16T01:31:30.920Z,68.98
2018-08-16T01:31:40.910Z,68.82
2018-08-16T01:31:50.931Z,68.78
2018-08-16T01:32:00.962Z,69.01
2018-08-16T01:32:10.950Z,68.78
2018-08-16T01:32:21.299Z,68.88
2018-08-16T01:32:30.710Z,68.82
2018-08-16T01:32:41.003Z,68.82
2018-08-16T01:32:51.019Z,68.82
2018-08-16T01:33:01.043Z,68.62
2018-08-16T01:33:11.040Z,68.82
2018-08-16T01:33:21.057Z,68.78
2018-08-16T01:33:31.061Z,68.62
2018-08-16T01:33:41.081Z,69.01
2018-08-16T01:33:51.152Z,68.98
2018-08-16T01:34:01.141Z,68.59
2018-08-16T01:34:11.140Z,68.68
2018-08-16T01:34:21.131Z,68.62
2018-08-16T01:34:31.151Z,68.78
2018-08-16T01:34:41.161Z,68.82
2018-08-16T01:34:51.177Z,68.78
2018-08-16T01:35:01.193Z,68.91
2018-08-16T01:35:11.333Z,68.88
2018-08-16T01:35:21.211Z,68.68
2018-08-16T01:35:31.401Z,68.72
2018-08-16T01:35:41.412Z,68.78
2018-08-16T01:35:51.251Z,68.88
2018-08-16T01:36:01.271Z,68.91
2018-08-16T01:36:11.301Z,68.82
2018-08-16T01:36:21.291Z,68.82
2018-08-16T01:36:31.332Z,68.78
2018-08-16T01:36:41.347Z,68.62
2018-08-16T01:36:51.330Z,68.62
2018-08-16T01:37:01.357Z,68.82
2018-08-16T01:37:11.370Z,68.72
2018-08-16T01:37:21.621Z,68.72
2018-08-16T01:37:31.401Z,68.59
2018-08-16T01:37:41.446Z,68.88
2018-08-16T01:37:51.427Z,68.78
2018-08-16T01:38:01.441Z,68.91
2018-08-16T01:38:11.450Z,68.78
2018-08-16T01:38:21.491Z,68.78
2018-08-16T01:38:31.221Z,68.91
2018-08-16T01:38:41.492Z,68.91
2018-08-16T01:38:51.531Z,68.82
2018-08-16T01:39:01.530Z,68.78
2018-08-16T01:39:11.549Z,68.91
2018-08-16T01:39:21.570Z,68.88
2018-08-16T01:39:31.550Z,68.82
2018-08-16T01:39:41.574Z,68.88
2018-08-16T01:39:51.321Z,68.88
2018-08-16T01:40:01.592Z,68.82
2018-08-16T01:40:11.644Z,68.68
2018-08-16T01:40:21.631Z,68.78
2018-08-16T01:40:31.650Z,68.82
2018-08-16T01:40:41.654Z,68.82
2018-08-16T01:40:51.671Z,68.88
2018-08-16T01:41:01.711Z,68.72
2018-08-16T01:41:11.712Z,68.82
2018-08-16T01:41:21.731Z,68.88
2018-08-16T01:41:31.702Z,68.82
2018-08-16T01:41:41.762Z,68.91
2018-08-16T01:41:51.733Z,68.68
2018-08-16T01:42:01.774Z,68.68
2018-08-16T01:42:11.761Z,68.82
2018-08-16T01:42:21.781Z,68.72
2018-08-16T01:42:31.813Z,68.72
2018-08-16T01:42:41.801Z,68.68
2018-08-16T01:42:51.831Z,68.72
2018-08-16T01:43:01.851Z,69.07
2018-08-16T01:43:11.841Z,69.3
2018-08-16T01:43:21.864Z,69.17
2018-08-16T01:43:31.902Z,68.98
2018-08-16T01:43:41.871Z,68.72
2018-08-16T01:43:51.921Z,68.68
2018-08-16T01:44:01.983Z,69.2
2018-08-16T01:44:11.947Z,68.91
2018-08-16T01:44:21.971Z,69.07
2018-08-16T01:44:32.001Z,69.07
2018-08-16T01:44:41.960Z,68.62
2018-08-16T01:44:51.994Z,68.82
2018-08-16T01:45:02.022Z,69.01
2018-08-16T01:45:12.011Z,68.98
2018-08-16T01:45:22.042Z,69.1
2018-08-16T01:45:32.051Z,69.07
2018-08-16T01:45:42.082Z,69.01
2018-08-16T01:45:52.080Z,69.07
2018-08-16T01:46:02.092Z,68.82
2018-08-16T01:46:11.852Z,69.01
2018-08-16T01:46:21.834Z,69.1
2018-08-16T01:46:32.132Z,69.26
2018-08-16T01:46:42.141Z,68.72
2018-08-16T01:46:52.142Z,68.72
2018-08-16T01:47:02.172Z,69.07
2018-08-16T01:47:11.911Z,69.1
2018-08-16T01:47:22.194Z,68.82
2018-08-16T01:47:32.203Z,69.2
2018-08-16T01:47:42.243Z,68.68
2018-08-16T01:47:52.242Z,69.1
2018-08-16T01:48:02.263Z,68.72
2018-08-16T01:48:12.324Z,68.62
2018-08-16T01:48:22.272Z,68.59
2018-08-16T01:48:32.303Z,68.72
2018-08-16T01:48:42.314Z,68.91
2018-08-16T01:48:52.312Z,68.78
2018-08-16T01:49:02.322Z,69.1
2018-08-16T01:49:12.385Z,68.91
2018-08-16T01:49:22.405Z,68.62
2018-08-16T01:49:32.103Z,68.82
2018-08-16T01:49:42.404Z,68.72
2018-08-16T01:49:52.391Z,68.62
2018-08-16T01:50:02.422Z,68.62
2018-08-16T01:50:12.452Z,68.78
2018-08-16T01:50:22.423Z,68.78
2018-08-16T01:50:32.469Z,69.01
2018-08-16T01:50:42.473Z,68.62
2018-08-16T01:50:52.482Z,68.72
2018-08-16T01:51:02.483Z,68.82
2018-08-16T01:51:12.516Z,68.91
2018-08-16T01:51:22.532Z,68.68
2018-08-16T01:51:32.532Z,68.72
2018-08-16T01:51:42.561Z,68.88
2018-08-16T01:51:52.602Z,68.78
2018-08-16T01:52:02.572Z,68.98
2018-08-16T01:52:12.561Z,68.62
2018-08-16T01:52:22.922Z,68.62
2018-08-16T01:52:32.632Z,68.59
2018-08-16T01:52:42.639Z,69.01
2018-08-16T01:52:52.662Z,68.98
2018-08-16T01:53:02.654Z,68.82
2018-08-16T01:53:12.401Z,68.59
2018-08-16T01:53:22.712Z,68.59
2018-08-16T01:53:32.722Z,68.59
2018-08-16T01:53:42.732Z,68.78
2018-08-16T01:53:52.723Z,68.78
2018-08-16T01:54:02.776Z,68.62
2018-08-16T01:54:12.756Z,68.91
2018-08-16T01:54:22.782Z,68.72
2018-08-16T01:54:32.862Z,69.01
2018-08-16T01:54:42.811Z,68.98
2018-08-16T01:54:52.828Z,68.88
2018-08-16T01:55:02.891Z,68.82
2018-08-16T01:55:12.603Z,68.91
2018-08-16T01:55:22.832Z,68.78
2018-08-16T01:55:32.863Z,68.78
2018-08-16T01:55:42.892Z,68.88
2018-08-16T01:55:52.893Z,68.82
2018-08-16T01:56:02.927Z,68.98
2018-08-16T01:56:12.903Z,68.82
2018-08-16T01:56:22.934Z,68.98
2018-08-16T01:56:32.958Z,68.62
2018-08-16T01:56:42.965Z,68.82
2018-08-16T01:56:52.983Z,68.78
2018-08-16T01:57:02.993Z,68.82
2018-08-16T01:57:13.027Z,68.78
2018-08-16T01:57:23.033Z,68.62
2018-08-16T01:57:33.024Z,68.68
2018-08-16T01:57:43.053Z,69.07
2018-08-16T01:57:53.083Z,68.98
2018-08-16T01:58:03.064Z,69.01
2018-08-16T01:58:13.173Z,68.78
2018-08-16T01:58:23.095Z,68.88
2018-08-16T01:58:33.146Z,68.78
2018-08-16T01:58:43.141Z,68.91
2018-08-16T01:58:53.143Z,69.01
2018-08-16T01:59:03.153Z,68.88
2018-08-16T01:59:13.183Z,69.01
2018-08-16T01:59:23.164Z,68.98
2018-08-16T01:59:33.183Z,68.88
2018-08-16T01:59:43.213Z,68.78
2018-08-16T01:59:53.234Z,68.78
2018-08-16T02:00:03.284Z,68.88
2018-08-16T02:00:13.245Z,68.91
2018-08-16T02:00:23.255Z,69.01
2018-08-16T02:00:33.274Z,68.78
2018-08-16T02:00:43.309Z,68.82
2018-08-16T02:00:53.337Z,69.1
2018-08-16T02:01:03.344Z,69.01
2018-08-16T02:01:13.354Z,69.2
2018-08-16T02:01:23.377Z,68.88
2018-08-16T02:01:33.364Z,68.88
2018-08-16T02:01:43.388Z,69.2
2018-08-16T02:01:53.386Z,69.1
2018-08-16T02:02:03.407Z,68.91
2018-08-16T02:02:13.414Z,68.62
2018-08-16T02:02:23.475Z,68.78
2018-08-16T02:02:33.433Z,68.49
2018-08-16T02:02:43.464Z,69.07
2018-08-16T02:02:53.471Z,69.17
2018-08-16T02:03:03.494Z,69.2
2018-08-16T02:03:13.484Z,69.2
2018-08-16T02:03:23.514Z,68.91
2018-08-16T02:03:33.524Z,69.17
2018-08-16T02:03:43.584Z,69.17
2018-08-16T02:03:53.545Z,69.2
2018-08-16T02:04:03.545Z,69.17
2018-08-16T02:04:13.544Z,69.17
2018-08-16T02:04:23.594Z,69.01
2018-08-16T02:04:33.615Z,68.82
2018-08-16T02:04:43.615Z,68.82
2018-08-16T02:04:53.670Z,68.88
2018-08-16T02:05:03.730Z,68.88
2018-08-16T02:05:13.802Z,68.88
2018-08-16T02:05:23.690Z,68.88
2018-08-16T02:05:33.684Z,69.17
2018-08-16T02:05:43.834Z,68.91
2018-08-16T02:05:53.728Z,69.17
2018-08-16T02:06:03.735Z,68.91
2018-08-16T02:06:13.778Z,69.2
2018-08-16T02:06:23.771Z,68.98
2018-08-16T02:06:33.784Z,68.78
2018-08-16T02:06:43.795Z,68.91
2018-08-16T02:06:53.546Z,68.91
2018-08-16T02:07:03.821Z,69.17
2018-08-16T02:07:13.565Z,69.17
2018-08-16T02:07:23.825Z,68.78
2018-08-16T02:07:33.864Z,68.88
2018-08-16T02:07:43.875Z,68.88
2018-08-16T02:07:53.874Z,69.17
2018-08-16T02:08:03.905Z,68.88
2018-08-16T02:08:13.925Z,68.88
2018-08-16T02:08:23.650Z,68.88
2018-08-16T02:08:33.935Z,68.68
2018-08-16T02:08:43.681Z,69.17
2018-08-16T02:08:53.965Z,68.88
2018-08-16T02:09:04.004Z,68.88
2018-08-16T02:09:14.005Z,68.91
2018-08-16T02:09:24.034Z,68.78
2018-08-16T02:09:34.024Z,68.88
2018-08-16T02:09:44.044Z,68.82